sensor_id;sensor_type;location;lat;lon;timestamp;P1;durP1;ratioP1;P2;durP2;ratioP2
41259;SDS011;26993;48.958;9.330;2022-07-29T00:00:54;8.95;;;6.85;;
41259;SDS011;26993;48.958;9.330;2022-07-29T00:03:40;8.93;;;7.10;;
41259;SDS011;26993;48.958;9.330;2022-07-29T00:06:27;8.85;;;6.78;;
41259;SDS011;26993;48.958;9.330;2022-07-29T00:09:14;9.18;;;8.05;;
41259;SDS011;26993;48.958;9.330;2022-07-29T00:12:02;9.23;;;7.57;;
41259;SDS011;26993;48.958;9.330;2022-07-29T00:14:51;9.15;;;7.40;;
41259;SDS011;26993;48.958;9.330;2022-07-29T00:17:38;7.68;;;6.88;;
41259;SDS011;26993;48.958;9.330;2022-07-29T00:20:24;9.23;;;7.40;;
41259;SDS011;26993;48.958;9.330;2022-07-29T00:23:11;10.73;;;7.63;;
41259;SDS011;26993;48.958;9.330;2022-07-29T00:25:58;9.35;;;7.28;;
41259;SDS011;26993;48.958;9.330;2022-07-29T00:28:46;12.63;;;7.18;;
41259;SDS011;26993;48.958;9.330;2022-07-29T00:31:33;10.43;;;7.47;;
41259;SDS011;26993;48.958;9.330;2022-07-29T00:34:19;10.88;;;7.35;;
41259;SDS011;26993;48.958;9.330;2022-07-29T00:37:24;9.40;;;7.82;;
41259;SDS011;26993;48.958;9.330;2022-07-29T00:40:10;10.23;;;7.57;;
41259;SDS011;26993;48.958;9.330;2022-07-29T00:42:58;8.45;;;7.35;;
41259;SDS011;26993;48.958;9.330;2022-07-29T00:45:46;10.02;;;7.90;;
41259;SDS011;26993;48.958;9.330;2022-07-29T00:48:32;14.18;;;7.82;;
41259;SDS011;26993;48.958;9.330;2022-07-29T00:51:19;13.27;;;7.70;;
41259;SDS011;26993;48.958;9.330;2022-07-29T00:54:06;12.20;;;7.43;;
41259;SDS011;26993;48.958;9.330;2022-07-29T00:56:53;10.35;;;7.75;;
41259;SDS011;26993;48.958;9.330;2022-07-29T00:59:40;11.23;;;7.72;;
41259;SDS011;26993;48.958;9.330;2022-07-29T01:02:28;9.02;;;7.90;;
41259;SDS011;26993;48.958;9.330;2022-07-29T01:05:16;8.88;;;7.28;;
41259;SDS011;26993;48.958;9.330;2022-07-29T01:08:05;9.82;;;7.13;;
41259;SDS011;26993;48.958;9.330;2022-07-29T01:10:52;10.50;;;7.75;;
41259;SDS011;26993;48.958;9.330;2022-07-29T01:13:40;8.40;;;7.20;;
41259;SDS011;26993;48.958;9.330;2022-07-29T01:16:30;8.10;;;7.22;;
41259;SDS011;26993;48.958;9.330;2022-07-29T01:19:26;9.52;;;7.18;;
41259;SDS011;26993;48.958;9.330;2022-07-29T01:22:37;10.45;;;7.28;;
41259;SDS011;26993;48.958;9.330;2022-07-29T01:25:46;12.40;;;7.10;;
41259;SDS011;26993;48.958;9.330;2022-07-29T01:31:49;9.55;;;7.13;;
41259;SDS011;26993;48.958;9.330;2022-07-29T01:34:41;8.98;;;7.70;;
41259;SDS011;26993;48.958;9.330;2022-07-29T01:37:36;10.48;;;7.47;;
41259;SDS011;26993;48.958;9.330;2022-07-29T01:40:30;12.73;;;7.88;;
41259;SDS011;26993;48.958;9.330;2022-07-29T01:43:21;10.32;;;7.30;;
41259;SDS011;26993;48.958;9.330;2022-07-29T01:46:15;9.27;;;7.28;;
41259;SDS011;26993;48.958;9.330;2022-07-29T01:49:08;11.52;;;7.90;;
41259;SDS011;26993;48.958;9.330;2022-07-29T01:52:00;10.70;;;7.30;;
41259;SDS011;26993;48.958;9.330;2022-07-29T01:54:52;8.45;;;7.35;;
41259;SDS011;26993;48.958;9.330;2022-07-29T01:57:43;8.23;;;7.43;;
41259;SDS011;26993;48.958;9.330;2022-07-29T02:00:33;11.68;;;8.13;;
41259;SDS011;26993;48.958;9.330;2022-07-29T02:03:22;10.38;;;7.97;;
41259;SDS011;26993;48.958;9.330;2022-07-29T02:06:09;9.23;;;8.05;;
41259;SDS011;26993;48.958;9.330;2022-07-29T02:08:57;8.98;;;7.43;;
41259;SDS011;26993;48.958;9.330;2022-07-29T02:11:47;9.88;;;8.18;;
41259;SDS011;26993;48.958;9.330;2022-07-29T02:14:38;12.25;;;7.60;;
41259;SDS011;26993;48.958;9.330;2022-07-29T02:17:27;12.27;;;8.32;;
41259;SDS011;26993;48.958;9.330;2022-07-29T02:20:20;10.07;;;7.68;;
41259;SDS011;26993;48.958;9.330;2022-07-29T02:23:09;10.68;;;8.10;;
41259;SDS011;26993;48.958;9.330;2022-07-29T02:25:57;11.57;;;7.82;;
41259;SDS011;26993;48.958;9.330;2022-07-29T02:28:45;8.82;;;7.93;;
41259;SDS011;26993;48.958;9.330;2022-07-29T02:31:33;9.02;;;7.75;;
41259;SDS011;26993;48.958;9.330;2022-07-29T02:34:22;10.68;;;8.00;;
41259;SDS011;26993;48.958;9.330;2022-07-29T02:37:12;11.57;;;7.30;;
41259;SDS011;26993;48.958;9.330;2022-07-29T02:40:00;8.45;;;7.55;;
41259;SDS011;26993;48.958;9.330;2022-07-29T02:42:48;7.90;;;7.10;;
41259;SDS011;26993;48.958;9.330;2022-07-29T02:45:36;9.88;;;8.00;;
41259;SDS011;26993;48.958;9.330;2022-07-29T02:48:34;10.43;;;7.93;;
41259;SDS011;26993;48.958;9.330;2022-07-29T02:51:25;10.90;;;7.50;;
41259;SDS011;26993;48.958;9.330;2022-07-29T02:54:27;9.70;;;7.75;;
41259;SDS011;26993;48.958;9.330;2022-07-29T02:57:20;9.90;;;8.23;;
41259;SDS011;26993;48.958;9.330;2022-07-29T03:00:17;18.00;;;8.15;;
41259;SDS011;26993;48.958;9.330;2022-07-29T03:03:07;10.10;;;8.48;;
41259;SDS011;26993;48.958;9.330;2022-07-29T03:05:57;12.73;;;7.93;;
41259;SDS011;26993;48.958;9.330;2022-07-29T03:08:45;9.82;;;8.38;;
41259;SDS011;26993;48.958;9.330;2022-07-29T03:11:35;10.85;;;8.98;;
41259;SDS011;26993;48.958;9.330;2022-07-29T03:14:22;11.00;;;8.85;;
41259;SDS011;26993;48.958;9.330;2022-07-29T03:17:10;10.77;;;8.90;;
41259;SDS011;26993;48.958;9.330;2022-07-29T03:19:58;10.57;;;8.90;;
41259;SDS011;26993;48.958;9.330;2022-07-29T03:22:45;9.82;;;8.50;;
41259;SDS011;26993;48.958;9.330;2022-07-29T03:25:32;10.30;;;8.77;;
41259;SDS011;26993;48.958;9.330;2022-07-29T03:28:21;11.43;;;8.77;;
41259;SDS011;26993;48.958;9.330;2022-07-29T03:31:08;9.32;;;8.40;;
41259;SDS011;26993;48.958;9.330;2022-07-29T03:33:55;12.38;;;8.25;;
41259;SDS011;26993;48.958;9.330;2022-07-29T03:36:42;13.50;;;9.05;;
41259;SDS011;26993;48.958;9.330;2022-07-29T03:39:29;10.32;;;9.07;;
41259;SDS011;26993;48.958;9.330;2022-07-29T03:42:19;12.80;;;9.02;;
41259;SDS011;26993;48.958;9.330;2022-07-29T03:45:10;15.00;;;7.85;;
41259;SDS011;26993;48.958;9.330;2022-07-29T03:48:05;11.85;;;8.57;;
41259;SDS011;26993;48.958;9.330;2022-07-29T03:50:54;9.23;;;8.30;;
41259;SDS011;26993;48.958;9.330;2022-07-29T03:53:41;12.88;;;8.63;;
41259;SDS011;26993;48.958;9.330;2022-07-29T03:56:28;10.85;;;8.05;;
41259;SDS011;26993;48.958;9.330;2022-07-29T03:59:18;10.57;;;8.70;;
41259;SDS011;26993;48.958;9.330;2022-07-29T04:02:09;12.82;;;8.60;;
41259;SDS011;26993;48.958;9.330;2022-07-29T04:04:57;9.85;;;8.90;;
41259;SDS011;26993;48.958;9.330;2022-07-29T04:07:44;10.30;;;8.13;;
41259;SDS011;26993;48.958;9.330;2022-07-29T04:10:33;10.07;;;8.25;;
41259;SDS011;26993;48.958;9.330;2022-07-29T04:13:19;10.20;;;8.07;;
41259;SDS011;26993;48.958;9.330;2022-07-29T04:16:06;11.27;;;8.55;;
41259;SDS011;26993;48.958;9.330;2022-07-29T04:18:54;11.30;;;7.72;;
41259;SDS011;26993;48.958;9.330;2022-07-29T04:21:41;9.30;;;8.32;;
41259;SDS011;26993;48.958;9.330;2022-07-29T04:24:30;11.40;;;8.55;;
41259;SDS011;26993;48.958;9.330;2022-07-29T04:27:16;9.13;;;8.23;;
41259;SDS011;26993;48.958;9.330;2022-07-29T04:30:03;17.50;;;8.90;;
41259;SDS011;26993;48.958;9.330;2022-07-29T04:32:51;10.63;;;7.95;;
41259;SDS011;26993;48.958;9.330;2022-07-29T04:35:39;9.82;;;8.20;;
41259;SDS011;26993;48.958;9.330;2022-07-29T04:38:26;9.35;;;7.97;;
41259;SDS011;26993;48.958;9.330;2022-07-29T04:41:13;10.75;;;7.78;;
41259;SDS011;26993;48.958;9.330;2022-07-29T04:43:59;7.65;;;6.85;;
41259;SDS011;26993;48.958;9.330;2022-07-29T04:46:50;13.93;;;7.97;;
41259;SDS011;26993;48.958;9.330;2022-07-29T04:49:37;11.25;;;7.72;;
41259;SDS011;26993;48.958;9.330;2022-07-29T04:52:25;11.60;;;7.80;;
41259;SDS011;26993;48.958;9.330;2022-07-29T04:55:12;14.75;;;8.73;;
41259;SDS011;26993;48.958;9.330;2022-07-29T04:57:59;10.88;;;8.13;;
41259;SDS011;26993;48.958;9.330;2022-07-29T05:00:46;10.10;;;7.43;;
41259;SDS011;26993;48.958;9.330;2022-07-29T05:03:32;11.23;;;7.47;;
41259;SDS011;26993;48.958;9.330;2022-07-29T05:06:19;10.52;;;7.93;;
41259;SDS011;26993;48.958;9.330;2022-07-29T05:09:07;11.05;;;7.78;;
41259;SDS011;26993;48.958;9.330;2022-07-29T05:11:54;15.90;;;7.90;;
41259;SDS011;26993;48.958;9.330;2022-07-29T05:14:40;13.20;;;7.53;;
41259;SDS011;26993;48.958;9.330;2022-07-29T05:17:27;18.75;;;7.18;;
41259;SDS011;26993;48.958;9.330;2022-07-29T05:20:14;16.48;;;7.45;;
41259;SDS011;26993;48.958;9.330;2022-07-29T05:23:01;14.15;;;6.88;;
41259;SDS011;26993;48.958;9.330;2022-07-29T05:25:49;17.80;;;7.55;;
41259;SDS011;26993;48.958;9.330;2022-07-29T05:28:36;22.65;;;8.32;;
41259;SDS011;26993;48.958;9.330;2022-07-29T05:31:23;25.48;;;7.35;;
41259;SDS011;26993;48.958;9.330;2022-07-29T05:34:09;13.13;;;6.32;;
41259;SDS011;26993;48.958;9.330;2022-07-29T05:36:56;15.52;;;7.03;;
41259;SDS011;26993;48.958;9.330;2022-07-29T05:39:43;21.85;;;7.38;;
41259;SDS011;26993;48.958;9.330;2022-07-29T05:42:31;18.23;;;6.38;;
41259;SDS011;26993;48.958;9.330;2022-07-29T05:45:19;24.27;;;6.57;;
41259;SDS011;26993;48.958;9.330;2022-07-29T05:48:05;16.80;;;6.75;;
41259;SDS011;26993;48.958;9.330;2022-07-29T05:50:52;15.80;;;6.68;;
41259;SDS011;26993;48.958;9.330;2022-07-29T05:53:39;27.80;;;7.35;;
41259;SDS011;26993;48.958;9.330;2022-07-29T05:56:26;21.80;;;6.57;;
41259;SDS011;26993;48.958;9.330;2022-07-29T05:59:14;20.05;;;6.43;;
41259;SDS011;26993;48.958;9.330;2022-07-29T06:02:00;18.30;;;6.47;;
41259;SDS011;26993;48.958;9.330;2022-07-29T06:04:47;18.98;;;7.45;;
41259;SDS011;26993;48.958;9.330;2022-07-29T06:07:34;20.25;;;5.97;;
41259;SDS011;26993;48.958;9.330;2022-07-29T06:10:21;10.75;;;6.70;;
41259;SDS011;26993;48.958;9.330;2022-07-29T06:13:08;16.70;;;7.20;;
41259;SDS011;26993;48.958;9.330;2022-07-29T06:15:56;15.65;;;7.20;;
41259;SDS011;26993;48.958;9.330;2022-07-29T06:18:43;11.55;;;7.10;;
41259;SDS011;26993;48.958;9.330;2022-07-29T06:21:30;13.57;;;6.88;;
41259;SDS011;26993;48.958;9.330;2022-07-29T06:24:16;22.88;;;7.00;;
41259;SDS011;26993;48.958;9.330;2022-07-29T06:27:03;11.77;;;6.80;;
41259;SDS011;26993;48.958;9.330;2022-07-29T06:29:50;12.15;;;5.70;;
41259;SDS011;26993;48.958;9.330;2022-07-29T06:32:38;14.25;;;6.43;;
41259;SDS011;26993;48.958;9.330;2022-07-29T06:35:24;13.60;;;6.45;;
41259;SDS011;26993;48.958;9.330;2022-07-29T06:38:11;13.23;;;5.72;;
41259;SDS011;26993;48.958;9.330;2022-07-29T06:40:58;13.50;;;6.10;;
41259;SDS011;26993;48.958;9.330;2022-07-29T06:43:48;8.73;;;5.75;;
41259;SDS011;26993;48.958;9.330;2022-07-29T06:46:36;10.75;;;6.55;;
41259;SDS011;26993;48.958;9.330;2022-07-29T06:49:24;6.47;;;5.82;;
41259;SDS011;26993;48.958;9.330;2022-07-29T06:52:11;5.90;;;5.30;;
41259;SDS011;26993;48.958;9.330;2022-07-29T06:54:58;6.20;;;5.60;;
41259;SDS011;26993;48.958;9.330;2022-07-29T06:57:44;8.25;;;5.22;;
41259;SDS011;26993;48.958;9.330;2022-07-29T07:00:31;4.95;;;4.30;;
41259;SDS011;26993;48.958;9.330;2022-07-29T07:03:18;6.53;;;5.03;;
41259;SDS011;26993;48.958;9.330;2022-07-29T07:06:06;8.02;;;5.10;;
41259;SDS011;26993;48.958;9.330;2022-07-29T07:08:53;7.53;;;5.40;;
41259;SDS011;26993;48.958;9.330;2022-07-29T07:11:39;6.47;;;5.30;;
41259;SDS011;26993;48.958;9.330;2022-07-29T07:14:26;7.53;;;4.85;;
41259;SDS011;26993;48.958;9.330;2022-07-29T07:17:13;5.82;;;4.97;;
41259;SDS011;26993;48.958;9.330;2022-07-29T07:19:59;6.45;;;4.57;;
41259;SDS011;26993;48.958;9.330;2022-07-29T07:22:48;10.85;;;5.40;;
41259;SDS011;26993;48.958;9.330;2022-07-29T07:25:34;6.68;;;5.10;;
41259;SDS011;26993;48.958;9.330;2022-07-29T07:28:21;7.07;;;5.78;;
41259;SDS011;26993;48.958;9.330;2022-07-29T07:31:08;5.95;;;5.32;;
41259;SDS011;26993;48.958;9.330;2022-07-29T07:33:55;10.20;;;5.43;;
41259;SDS011;26993;48.958;9.330;2022-07-29T07:36:41;6.28;;;5.00;;
41259;SDS011;26993;48.958;9.330;2022-07-29T07:39:29;8.77;;;5.25;;
41259;SDS011;26993;48.958;9.330;2022-07-29T07:42:16;5.65;;;5.15;;
41259;SDS011;26993;48.958;9.330;2022-07-29T07:45:03;5.40;;;4.72;;
41259;SDS011;26993;48.958;9.330;2022-07-29T07:47:51;6.78;;;5.07;;
41259;SDS011;26993;48.958;9.330;2022-07-29T07:50:37;5.45;;;4.95;;
41259;SDS011;26993;48.958;9.330;2022-07-29T07:53:24;6.28;;;5.68;;
41259;SDS011;26993;48.958;9.330;2022-07-29T07:56:12;8.07;;;5.15;;
41259;SDS011;26993;48.958;9.330;2022-07-29T07:58:59;6.05;;;5.03;;
41259;SDS011;26993;48.958;9.330;2022-07-29T08:01:45;5.50;;;5.00;;
41259;SDS011;26993;48.958;9.330;2022-07-29T08:04:32;6.70;;;4.88;;
41259;SDS011;26993;48.958;9.330;2022-07-29T08:07:19;6.55;;;4.75;;
41259;SDS011;26993;48.958;9.330;2022-07-29T08:10:06;6.03;;;5.07;;
41259;SDS011;26993;48.958;9.330;2022-07-29T08:12:55;6.03;;;5.13;;
41259;SDS011;26993;48.958;9.330;2022-07-29T08:15:42;5.82;;;5.00;;
41259;SDS011;26993;48.958;9.330;2022-07-29T08:18:30;12.02;;;5.80;;
41259;SDS011;26993;48.958;9.330;2022-07-29T08:21:17;8.02;;;5.20;;
41259;SDS011;26993;48.958;9.330;2022-07-29T08:24:04;6.00;;;5.00;;
41259;SDS011;26993;48.958;9.330;2022-07-29T08:27:08;9.05;;;5.35;;
41259;SDS011;26993;48.958;9.330;2022-07-29T08:29:57;13.00;;;5.53;;
41259;SDS011;26993;48.958;9.330;2022-07-29T08:32:43;12.82;;;5.93;;
41259;SDS011;26993;48.958;9.330;2022-07-29T08:35:30;9.70;;;5.55;;
41259;SDS011;26993;48.958;9.330;2022-07-29T08:38:17;6.43;;;4.75;;
41259;SDS011;26993;48.958;9.330;2022-07-29T08:41:03;7.78;;;5.75;;
41259;SDS011;26993;48.958;9.330;2022-07-29T08:43:50;9.60;;;5.60;;
41259;SDS011;26993;48.958;9.330;2022-07-29T08:46:39;6.45;;;5.22;;
41259;SDS011;26993;48.958;9.330;2022-07-29T08:49:26;6.13;;;5.22;;
41259;SDS011;26993;48.958;9.330;2022-07-29T08:52:12;7.88;;;5.15;;
41259;SDS011;26993;48.958;9.330;2022-07-29T08:55:01;9.52;;;5.95;;
41259;SDS011;26993;48.958;9.330;2022-07-29T08:57:48;14.75;;;6.00;;
41259;SDS011;26993;48.958;9.330;2022-07-29T09:00:35;8.25;;;5.70;;
41259;SDS011;26993;48.958;9.330;2022-07-29T09:03:25;6.63;;;5.57;;
41259;SDS011;26993;48.958;9.330;2022-07-29T09:06:17;7.80;;;5.63;;
41259;SDS011;26993;48.958;9.330;2022-07-29T09:09:05;12.88;;;5.63;;
41259;SDS011;26993;48.958;9.330;2022-07-29T09:11:53;7.00;;;5.60;;
41259;SDS011;26993;48.958;9.330;2022-07-29T09:14:40;8.23;;;6.22;;
41259;SDS011;26993;48.958;9.330;2022-07-29T09:17:40;9.68;;;5.35;;
41259;SDS011;26993;48.958;9.330;2022-07-29T09:20:29;10.02;;;5.80;;
41259;SDS011;26993;48.958;9.330;2022-07-29T09:23:36;10.00;;;5.70;;
41259;SDS011;26993;48.958;9.330;2022-07-29T09:26:23;14.07;;;5.63;;
41259;SDS011;26993;48.958;9.330;2022-07-29T09:29:15;8.80;;;5.60;;
41259;SDS011;26993;48.958;9.330;2022-07-29T09:32:03;8.05;;;5.78;;
41259;SDS011;26993;48.958;9.330;2022-07-29T09:38:12;8.18;;;6.07;;
41259;SDS011;26993;48.958;9.330;2022-07-29T09:41:01;6.70;;;6.00;;
41259;SDS011;26993;48.958;9.330;2022-07-29T09:43:53;8.40;;;5.50;;
41259;SDS011;26993;48.958;9.330;2022-07-29T09:46:41;8.07;;;5.85;;
41259;SDS011;26993;48.958;9.330;2022-07-29T09:49:52;9.57;;;6.10;;
41259;SDS011;26993;48.958;9.330;2022-07-29T09:52:46;7.15;;;6.45;;
41259;SDS011;26993;48.958;9.330;2022-07-29T09:55:42;6.32;;;5.72;;
41259;SDS011;26993;48.958;9.330;2022-07-29T09:58:32;7.13;;;6.47;;
41259;SDS011;26993;48.958;9.330;2022-07-29T10:01:26;7.78;;;6.43;;
41259;SDS011;26993;48.958;9.330;2022-07-29T10:04:13;13.90;;;6.60;;
41259;SDS011;26993;48.958;9.330;2022-07-29T10:07:01;9.00;;;6.93;;
41259;SDS011;26993;48.958;9.330;2022-07-29T10:09:52;9.07;;;6.38;;
41259;SDS011;26993;48.958;9.330;2022-07-29T10:12:49;8.38;;;6.40;;
41259;SDS011;26993;48.958;9.330;2022-07-29T10:15:38;13.82;;;6.63;;
41259;SDS011;26993;48.958;9.330;2022-07-29T10:18:28;8.82;;;6.80;;
41259;SDS011;26993;48.958;9.330;2022-07-29T10:21:16;11.90;;;7.15;;
41259;SDS011;26993;48.958;9.330;2022-07-29T10:24:03;9.43;;;7.00;;
41259;SDS011;26993;48.958;9.330;2022-07-29T10:26:51;7.78;;;6.38;;
41259;SDS011;26993;48.958;9.330;2022-07-29T10:29:40;8.40;;;6.65;;
41259;SDS011;26993;48.958;9.330;2022-07-29T10:32:35;9.90;;;7.03;;
41259;SDS011;26993;48.958;9.330;2022-07-29T10:35:33;8.88;;;6.88;;
41259;SDS011;26993;48.958;9.330;2022-07-29T10:38:45;9.30;;;6.80;;
41259;SDS011;26993;48.958;9.330;2022-07-29T10:41:52;7.97;;;6.47;;
41259;SDS011;26993;48.958;9.330;2022-07-29T10:45:04;7.82;;;6.38;;
41259;SDS011;26993;48.958;9.330;2022-07-29T10:48:02;7.90;;;6.57;;
41259;SDS011;26993;48.958;9.330;2022-07-29T10:50:53;7.63;;;6.60;;
41259;SDS011;26993;48.958;9.330;2022-07-29T10:53:48;10.32;;;6.68;;
41259;SDS011;26993;48.958;9.330;2022-07-29T10:56:36;8.35;;;6.50;;
41259;SDS011;26993;48.958;9.330;2022-07-29T10:59:25;9.73;;;6.43;;
41259;SDS011;26993;48.958;9.330;2022-07-29T11:05:53;9.80;;;6.25;;
41259;SDS011;26993;48.958;9.330;2022-07-29T11:08:41;9.07;;;7.18;;
41259;SDS011;26993;48.958;9.330;2022-07-29T11:11:31;10.25;;;6.47;;
41259;SDS011;26993;48.958;9.330;2022-07-29T11:14:21;9.43;;;6.80;;
41259;SDS011;26993;48.958;9.330;2022-07-29T11:20:51;7.82;;;5.90;;
41259;SDS011;26993;48.958;9.330;2022-07-29T11:23:39;15.70;;;6.03;;
41259;SDS011;26993;48.958;9.330;2022-07-29T11:26:27;13.27;;;5.38;;
41259;SDS011;26993;48.958;9.330;2022-07-29T11:29:16;9.02;;;6.03;;
41259;SDS011;26993;48.958;9.330;2022-07-29T11:32:10;8.68;;;6.53;;
41259;SDS011;26993;48.958;9.330;2022-07-29T11:35:14;9.65;;;6.10;;
41259;SDS011;26993;48.958;9.330;2022-07-29T11:44:22;7.75;;;5.93;;
41259;SDS011;26993;48.958;9.330;2022-07-29T11:47:46;7.03;;;6.30;;
41259;SDS011;26993;48.958;9.330;2022-07-29T11:50:36;7.00;;;5.85;;
41259;SDS011;26993;48.958;9.330;2022-07-29T11:53:24;8.07;;;5.93;;
41259;SDS011;26993;48.958;9.330;2022-07-29T11:56:11;7.78;;;6.18;;
41259;SDS011;26993;48.958;9.330;2022-07-29T11:59:02;17.88;;;6.50;;
41259;SDS011;26993;48.958;9.330;2022-07-29T12:01:51;9.38;;;6.13;;
41259;SDS011;26993;48.958;9.330;2022-07-29T12:04:47;6.90;;;6.20;;
41259;SDS011;26993;48.958;9.330;2022-07-29T12:07:36;8.95;;;6.55;;
41259;SDS011;26993;48.958;9.330;2022-07-29T12:10:24;10.25;;;6.13;;
41259;SDS011;26993;48.958;9.330;2022-07-29T12:13:17;13.20;;;6.20;;
41259;SDS011;26993;48.958;9.330;2022-07-29T12:16:05;6.18;;;5.63;;
41259;SDS011;26993;48.958;9.330;2022-07-29T12:18:55;9.13;;;5.93;;
41259;SDS011;26993;48.958;9.330;2022-07-29T12:21:43;9.60;;;6.68;;
41259;SDS011;26993;48.958;9.330;2022-07-29T12:24:43;10.30;;;6.90;;
41259;SDS011;26993;48.958;9.330;2022-07-29T12:27:31;9.50;;;6.70;;
41259;SDS011;26993;48.958;9.330;2022-07-29T12:30:18;10.82;;;6.82;;
41259;SDS011;26993;48.958;9.330;2022-07-29T12:33:15;8.00;;;6.90;;
41259;SDS011;26993;48.958;9.330;2022-07-29T12:36:06;8.18;;;7.38;;
41259;SDS011;26993;48.958;9.330;2022-07-29T12:38:53;11.15;;;7.32;;
41259;SDS011;26993;48.958;9.330;2022-07-29T12:41:42;9.90;;;7.32;;
41259;SDS011;26993;48.958;9.330;2022-07-29T12:44:42;8.70;;;7.07;;
41259;SDS011;26993;48.958;9.330;2022-07-29T12:47:30;8.75;;;7.43;;
41259;SDS011;26993;48.958;9.330;2022-07-29T12:50:16;14.73;;;7.40;;
41259;SDS011;26993;48.958;9.330;2022-07-29T12:53:10;8.18;;;6.57;;
41259;SDS011;26993;48.958;9.330;2022-07-29T12:55:59;7.60;;;6.75;;
41259;SDS011;26993;48.958;9.330;2022-07-29T12:58:48;8.90;;;7.18;;
41259;SDS011;26993;48.958;9.330;2022-07-29T13:01:36;14.93;;;6.63;;
41259;SDS011;26993;48.958;9.330;2022-07-29T13:04:26;13.18;;;6.80;;
41259;SDS011;26993;48.958;9.330;2022-07-29T13:07:14;8.27;;;6.60;;
41259;SDS011;26993;48.958;9.330;2022-07-29T13:10:11;12.73;;;5.95;;
41259;SDS011;26993;48.958;9.330;2022-07-29T13:13:04;14.02;;;6.80;;
41259;SDS011;26993;48.958;9.330;2022-07-29T13:16:06;9.32;;;6.20;;
41259;SDS011;26993;48.958;9.330;2022-07-29T13:19:10;8.40;;;6.80;;
41259;SDS011;26993;48.958;9.330;2022-07-29T13:21:57;15.77;;;6.00;;
41259;SDS011;26993;48.958;9.330;2022-07-29T13:24:45;7.20;;;5.78;;
41259;SDS011;26993;48.958;9.330;2022-07-29T13:27:33;10.38;;;4.35;;
41259;SDS011;26993;48.958;9.330;2022-07-29T13:30:22;11.77;;;4.10;;
41259;SDS011;26993;48.958;9.330;2022-07-29T13:33:10;5.35;;;3.05;;
41259;SDS011;26993;48.958;9.330;2022-07-29T13:35:57;7.57;;;3.35;;
41259;SDS011;26993;48.958;9.330;2022-07-29T13:38:43;2.88;;;2.58;;
41259;SDS011;26993;48.958;9.330;2022-07-29T14:52:07;6.75;;;6.00;;
41259;SDS011;26993;48.958;9.330;2022-07-29T14:54:53;6.65;;;5.85;;
41259;SDS011;26993;48.958;9.330;2022-07-29T14:57:40;6.75;;;6.03;;
41259;SDS011;26993;48.958;9.330;2022-07-29T15:00:27;12.20;;;6.28;;
41259;SDS011;26993;48.958;9.330;2022-07-29T15:03:17;8.90;;;5.90;;
41259;SDS011;26993;48.958;9.330;2022-07-29T15:06:04;10.60;;;5.68;;
41259;SDS011;26993;48.958;9.330;2022-07-29T15:08:52;6.90;;;5.47;;
41259;SDS011;26993;48.958;9.330;2022-07-29T15:11:39;10.07;;;6.13;;
41259;SDS011;26993;48.958;9.330;2022-07-29T15:14:26;9.40;;;5.90;;
41259;SDS011;26993;48.958;9.330;2022-07-29T15:17:13;14.90;;;5.72;;
41259;SDS011;26993;48.958;9.330;2022-07-29T15:20:00;7.97;;;6.07;;
41259;SDS011;26993;48.958;9.330;2022-07-29T15:22:46;9.68;;;5.93;;
41259;SDS011;26993;48.958;9.330;2022-07-29T15:25:34;12.13;;;6.03;;
41259;SDS011;26993;48.958;9.330;2022-07-29T15:28:22;11.85;;;6.05;;
41259;SDS011;26993;48.958;9.330;2022-07-29T15:31:08;8.68;;;5.82;;
41259;SDS011;26993;48.958;9.330;2022-07-29T15:33:55;11.35;;;5.78;;
41259;SDS011;26993;48.958;9.330;2022-07-29T15:36:42;8.73;;;6.15;;
41259;SDS011;26993;48.958;9.330;2022-07-29T15:39:29;6.38;;;5.72;;
41259;SDS011;26993;48.958;9.330;2022-07-29T15:42:17;8.30;;;5.70;;
41259;SDS011;26993;48.958;9.330;2022-07-29T15:45:04;10.65;;;5.88;;
41259;SDS011;26993;48.958;9.330;2022-07-29T15:47:51;6.88;;;5.95;;
41259;SDS011;26993;48.958;9.330;2022-07-29T15:50:38;7.47;;;6.68;;
41259;SDS011;26993;48.958;9.330;2022-07-29T15:53:24;9.05;;;5.88;;
41259;SDS011;26993;48.958;9.330;2022-07-29T15:56:11;8.48;;;6.45;;
41259;SDS011;26993;48.958;9.330;2022-07-29T15:58:59;8.75;;;6.55;;
41259;SDS011;26993;48.958;9.330;2022-07-29T16:01:46;7.50;;;6.10;;
41259;SDS011;26993;48.958;9.330;2022-07-29T16:04:33;13.88;;;6.50;;
41259;SDS011;26993;48.958;9.330;2022-07-29T16:07:20;7.93;;;5.40;;
41259;SDS011;26993;48.958;9.330;2022-07-29T16:10:06;6.32;;;5.72;;
41259;SDS011;26993;48.958;9.330;2022-07-29T16:12:53;8.32;;;6.03;;
41259;SDS011;26993;48.958;9.330;2022-07-29T16:15:42;8.85;;;5.60;;
41259;SDS011;26993;48.958;9.330;2022-07-29T16:18:29;6.80;;;6.03;;
41259;SDS011;26993;48.958;9.330;2022-07-29T16:21:16;6.45;;;5.03;;
41259;SDS011;26993;48.958;9.330;2022-07-29T16:24:03;8.02;;;5.47;;
41259;SDS011;26993;48.958;9.330;2022-07-29T16:26:50;6.65;;;4.95;;
41259;SDS011;26993;48.958;9.330;2022-07-29T16:29:37;5.30;;;4.80;;
41259;SDS011;26993;48.958;9.330;2022-07-29T16:32:25;7.43;;;4.88;;
41259;SDS011;26993;48.958;9.330;2022-07-29T16:35:12;5.97;;;5.25;;
41259;SDS011;26993;48.958;9.330;2022-07-29T16:37:59;7.47;;;4.90;;
41259;SDS011;26993;48.958;9.330;2022-07-29T16:40:45;9.13;;;5.05;;
41259;SDS011;26993;48.958;9.330;2022-07-29T16:43:32;5.57;;;3.75;;
41259;SDS011;26993;48.958;9.330;2022-07-29T16:46:19;5.40;;;2.92;;
41259;SDS011;26993;48.958;9.330;2022-07-29T16:49:07;5.65;;;3.58;;
41259;SDS011;26993;48.958;9.330;2022-07-29T16:51:54;5.57;;;4.43;;
41259;SDS011;26993;48.958;9.330;2022-07-29T16:54:40;8.40;;;5.07;;
41259;SDS011;26993;48.958;9.330;2022-07-29T16:57:27;10.77;;;5.03;;
41259;SDS011;26993;48.958;9.330;2022-07-29T17:00:14;7.50;;;5.07;;
41259;SDS011;26993;48.958;9.330;2022-07-29T17:03:02;10.27;;;4.55;;
41259;SDS011;26993;48.958;9.330;2022-07-29T17:05:51;9.07;;;5.03;;
41259;SDS011;26993;48.958;9.330;2022-07-29T17:08:37;8.45;;;4.43;;
41259;SDS011;26993;48.958;9.330;2022-07-29T17:11:24;5.70;;;4.75;;
41259;SDS011;26993;48.958;9.330;2022-07-29T17:14:11;8.60;;;4.75;;
41259;SDS011;26993;48.958;9.330;2022-07-29T17:16:59;6.35;;;4.40;;
41259;SDS011;26993;48.958;9.330;2022-07-29T17:19:46;6.05;;;4.05;;
41259;SDS011;26993;48.958;9.330;2022-07-29T17:22:34;4.72;;;3.13;;
41259;SDS011;26993;48.958;9.330;2022-07-29T17:25:21;6.40;;;3.15;;
41259;SDS011;26993;48.958;9.330;2022-07-29T17:28:07;8.52;;;3.60;;
41259;SDS011;26993;48.958;9.330;2022-07-29T17:30:54;10.80;;;4.00;;
41259;SDS011;26993;48.958;9.330;2022-07-29T17:33:41;9.30;;;4.60;;
41259;SDS011;26993;48.958;9.330;2022-07-29T17:36:29;5.55;;;4.65;;
41259;SDS011;26993;48.958;9.330;2022-07-29T17:39:17;6.85;;;4.60;;
41259;SDS011;26993;48.958;9.330;2022-07-29T17:42:04;7.10;;;4.90;;
41259;SDS011;26993;48.958;9.330;2022-07-29T17:44:51;7.38;;;4.93;;
41259;SDS011;26993;48.958;9.330;2022-07-29T17:47:38;6.18;;;3.60;;
41259;SDS011;26993;48.958;9.330;2022-07-29T17:50:25;4.47;;;3.33;;
41259;SDS011;26993;48.958;9.330;2022-07-29T17:53:12;7.28;;;4.35;;
41259;SDS011;26993;48.958;9.330;2022-07-29T17:56:03;6.88;;;5.30;;
41259;SDS011;26993;48.958;9.330;2022-07-29T17:58:50;7.13;;;5.43;;
41259;SDS011;26993;48.958;9.330;2022-07-29T18:01:38;7.75;;;5.97;;
41259;SDS011;26993;48.958;9.330;2022-07-29T18:04:25;6.00;;;5.30;;
41259;SDS011;26993;48.958;9.330;2022-07-29T18:07:13;6.05;;;5.40;;
41259;SDS011;26993;48.958;9.330;2022-07-29T18:09:59;7.35;;;5.07;;
41259;SDS011;26993;48.958;9.330;2022-07-29T18:12:48;7.03;;;5.75;;
41259;SDS011;26993;48.958;9.330;2022-07-29T18:15:34;6.15;;;4.90;;
41259;SDS011;26993;48.958;9.330;2022-07-29T18:18:21;6.07;;;5.03;;
41259;SDS011;26993;48.958;9.330;2022-07-29T18:21:08;7.88;;;5.57;;
41259;SDS011;26993;48.958;9.330;2022-07-29T18:23:55;9.18;;;5.47;;